createdAt,value
2023-08-31T00:00:18.208Z,3.53
2023-08-31T00:03:20.680Z,2.90
2023-08-31T00:06:22.983Z,3.10
2023-08-31T00:09:25.655Z,2.72
2023-08-31T00:12:27.271Z,3.15
2023-08-31T00:15:30.284Z,2.80
2023-08-31T00:18:31.973Z,3.42
2023-08-31T00:21:34.207Z,2.85
2023-08-31T00:24:37.818Z,2.60
2023-08-31T00:27:39.531Z,2.80
2023-08-31T00:30:41.429Z,2.58
2023-08-31T00:33:44.340Z,2.67
2023-08-31T00:36:46.038Z,2.75
2023-08-31T00:39:48.381Z,2.70
2023-08-31T00:42:50.037Z,3.25
2023-08-31T00:45:54.003Z,2.92
2023-08-31T00:48:55.876Z,2.63
2023-08-31T00:51:58.693Z,2.83
2023-08-31T00:55:01.114Z,2.50
2023-08-31T00:58:02.737Z,2.25
2023-08-31T01:01:14.912Z,2.58
2023-08-31T01:04:41.398Z,3.30
2023-08-31T01:07:58.474Z,3.35
2023-08-31T01:11:22.954Z,2.60
2023-08-31T01:14:28.956Z,2.42
2023-08-31T01:17:33.004Z,2.85
2023-08-31T01:20:52.698Z,3.05
2023-08-31T01:23:56.446Z,2.80
2023-08-31T01:26:58.437Z,2.90
2023-08-31T01:30:00.678Z,2.67
2023-08-31T01:33:03.477Z,2.55
2023-08-31T01:36:29.517Z,2.70
2023-08-31T01:39:39.917Z,2.65
2023-08-31T01:42:46.026Z,2.85
2023-08-31T01:45:48.116Z,3.25
2023-08-31T01:48:49.818Z,3.50
2023-08-31T01:51:51.402Z,2.35
2023-08-31T01:54:53.057Z,2.75
2023-08-31T01:57:54.689Z,2.67
2023-08-31T02:00:57.047Z,1.83
2023-08-31T02:03:58.828Z,2.55
2023-08-31T02:07:00.476Z,2.72
2023-08-31T02:10:02.137Z,3.10
2023-08-31T02:13:03.888Z,2.42
2023-08-31T02:16:05.671Z,1.95
2023-08-31T02:19:07.309Z,2.72
2023-08-31T02:22:09.103Z,3.22
2023-08-31T02:25:10.737Z,2.80
2023-08-31T02:28:12.537Z,4.00
2023-08-31T02:31:17.995Z,2.58
2023-08-31T02:34:19.641Z,2.80
2023-08-31T02:37:21.278Z,2.83
2023-08-31T02:40:22.880Z,2.97
2023-08-31T02:43:26.481Z,3.20
2023-08-31T02:46:28.177Z,2.92
2023-08-31T02:49:29.830Z,2.45
2023-08-31T02:52:31.410Z,2.85
2023-08-31T02:55:36.105Z,2.63
2023-08-31T02:58:40.297Z,2.88
2023-08-31T03:01:42.375Z,2.85
2023-08-31T03:04:44.048Z,2.88
2023-08-31T03:07:45.771Z,2.83
2023-08-31T03:10:47.328Z,2.88
2023-08-31T03:13:48.887Z,2.90
2023-08-31T03:16:50.546Z,2.50
2023-08-31T03:19:52.155Z,3.60
2023-08-31T03:22:53.844Z,3.05
2023-08-31T03:25:55.585Z,2.70
2023-08-31T03:28:57.337Z,2.72
2023-08-31T03:32:00.835Z,2.67
2023-08-31T03:35:05.775Z,3.13
2023-08-31T03:38:07.468Z,2.92
2023-08-31T03:41:09.065Z,3.05
2023-08-31T03:44:10.635Z,3.33
2023-08-31T03:47:12.225Z,2.67
2023-08-31T03:50:14.042Z,3.00
2023-08-31T03:53:15.622Z,2.60
2023-08-31T03:56:17.255Z,2.78
2023-08-31T03:59:19.484Z,3.97
2023-08-31T04:02:21.140Z,3.40
2023-08-31T04:05:22.795Z,3.85
2023-08-31T04:08:24.467Z,3.55
2023-08-31T04:11:27.396Z,3.78
2023-08-31T04:14:29.022Z,2.80
2023-08-31T04:17:30.894Z,3.55
2023-08-31T04:20:34.593Z,3.17
2023-08-31T04:23:36.261Z,3.25
2023-08-31T04:26:37.957Z,4.00
2023-08-31T04:29:39.643Z,3.70
2023-08-31T04:32:41.470Z,3.55
2023-08-31T04:35:43.354Z,2.75
2023-08-31T04:38:45.005Z,3.65
2023-08-31T04:41:46.619Z,3.25
2023-08-31T04:44:48.358Z,3.75
2023-08-31T04:47:51.993Z,3.13
2023-08-31T04:50:58.158Z,2.80
2023-08-31T04:54:00.545Z,3.90
2023-08-31T04:57:02.183Z,4.35
2023-08-31T05:00:05.947Z,4.13
2023-08-31T05:03:08.722Z,3.65
2023-08-31T05:06:10.479Z,4.07
2023-08-31T05:09:12.177Z,3.70
2023-08-31T05:12:13.796Z,4.40
2023-08-31T05:15:15.568Z,3.20
2023-08-31T05:18:17.223Z,3.95
2023-08-31T05:21:18.856Z,3.33
2023-08-31T05:24:20.451Z,2.90
2023-08-31T05:27:22.149Z,3.80
2023-08-31T05:30:23.750Z,3.45
2023-08-31T05:33:30.134Z,3.10
2023-08-31T05:36:31.851Z,2.90
2023-08-31T05:39:33.518Z,3.20
2023-08-31T05:42:35.123Z,3.53
2023-08-31T05:45:39.183Z,3.15
2023-08-31T05:48:40.811Z,3.33
2023-08-31T05:51:42.394Z,3.40
2023-08-31T05:54:43.974Z,3.13
2023-08-31T05:57:45.554Z,3.55
2023-08-31T06:00:47.149Z,3.13
2023-08-31T06:03:49.618Z,2.88
2023-08-31T06:06:55.045Z,3.33
2023-08-31T06:09:57.780Z,3.17
2023-08-31T06:12:59.444Z,3.53
2023-08-31T06:16:01.254Z,4.43
2023-08-31T06:19:03.336Z,3.10
2023-08-31T06:22:05.159Z,4.18
2023-08-31T06:39:32.356Z,2.65
2023-08-31T06:42:33.951Z,2.55
2023-08-31T06:45:35.718Z,2.35
2023-08-31T06:48:37.389Z,3.15
2023-08-31T06:51:39.061Z,2.75
2023-08-31T06:54:40.697Z,2.35
2023-08-31T06:57:43.081Z,1.83
2023-08-31T07:00:44.707Z,2.22
2023-08-31T07:03:47.225Z,2.20
2023-08-31T07:19:48.035Z,1.45
2023-08-31T07:22:49.857Z,1.77
2023-08-31T07:25:51.476Z,1.73
2023-08-31T07:28:53.112Z,1.52
2023-08-31T07:31:54.852Z,1.80
2023-08-31T07:34:56.499Z,1.60
2023-08-31T07:37:58.172Z,1.45
2023-08-31T07:40:59.932Z,1.30
2023-08-31T07:44:04.512Z,1.52
2023-08-31T07:47:07.097Z,1.30
2023-08-31T08:02:25.317Z,1.98
2023-08-31T08:05:27.015Z,2.33
2023-08-31T08:08:28.713Z,2.03
2023-08-31T08:11:30.356Z,1.98
2023-08-31T08:14:32.102Z,2.10
2023-08-31T08:17:33.801Z,2.00
2023-08-31T08:20:35.497Z,2.20
2023-08-31T08:23:37.215Z,2.03
2023-08-31T08:26:38.811Z,2.25
2023-08-31T08:29:40.432Z,2.00
2023-08-31T08:32:42.880Z,1.83
2023-08-31T08:35:44.551Z,1.67
2023-08-31T08:38:46.194Z,1.90
2023-08-31T08:41:48.229Z,2.30
2023-08-31T08:44:50.090Z,2.15
2023-08-31T08:47:52.967Z,1.83
2023-08-31T08:50:55.415Z,1.55
2023-08-31T08:53:59.778Z,1.63
2023-08-31T08:57:02.138Z,1.83
2023-08-31T09:00:04.701Z,1.83
2023-08-31T09:03:06.464Z,2.03
2023-08-31T09:06:09.319Z,1.05
2023-08-31T09:09:11.204Z,1.83
2023-08-31T09:12:12.827Z,2.13
2023-08-31T09:15:14.432Z,2.15
2023-08-31T09:18:27.041Z,1.83
2023-08-31T09:21:38.520Z,1.98
2023-08-31T09:24:44.177Z,1.83
2023-08-31T09:27:45.969Z,1.63
2023-08-31T09:30:49.298Z,1.75
2023-08-31T09:33:52.356Z,1.95
2023-08-31T09:36:54.123Z,1.92
2023-08-31T09:39:55.760Z,2.10
2023-08-31T09:42:57.401Z,1.73
2023-08-31T09:46:00.992Z,2.03
2023-08-31T09:49:02.768Z,2.35
2023-08-31T09:52:06.037Z,1.70
2023-08-31T09:55:08.937Z,2.13
2023-08-31T09:58:16.508Z,1.40
2023-08-31T10:01:28.905Z,2.00
2023-08-31T10:07:35.649Z,1.58
2023-08-31T10:10:38.465Z,1.60
2023-08-31T10:13:42.301Z,1.50
2023-08-31T10:16:46.048Z,1.33
2023-08-31T10:19:47.989Z,1.83
2023-08-31T10:22:50.074Z,2.03
2023-08-31T10:25:51.740Z,1.75
2023-08-31T10:28:54.187Z,1.45
2023-08-31T10:31:55.818Z,1.85
2023-08-31T10:35:08.508Z,1.52
2023-08-31T10:41:20.849Z,1.55
2023-08-31T10:44:27.656Z,2.15
2023-08-31T10:47:45.916Z,1.65
2023-08-31T10:53:52.536Z,1.85
2023-08-31T10:57:06.137Z,1.15
2023-08-31T11:00:09.222Z,1.73
2023-08-31T11:03:14.159Z,1.42
2023-08-31T11:06:16.098Z,1.42
2023-08-31T11:09:22.523Z,1.83
2023-08-31T11:12:25.122Z,2.20
2023-08-31T11:15:28.203Z,1.40
2023-08-31T11:18:30.099Z,1.65
2023-08-31T11:21:32.960Z,1.58
2023-08-31T11:24:34.928Z,1.80
2023-08-31T11:27:36.560Z,1.80
2023-08-31T11:30:38.257Z,1.75
2023-08-31T11:33:39.850Z,1.67
2023-08-31T11:36:45.712Z,1.88
2023-08-31T11:39:54.896Z,1.50
2023-08-31T11:42:58.718Z,1.63
2023-08-31T11:46:01.894Z,1.60
2023-08-31T11:49:07.058Z,1.70
2023-08-31T11:52:11.745Z,1.35
2023-08-31T11:55:15.596Z,1.75
2023-08-31T11:58:17.222Z,1.23
2023-08-31T12:01:21.287Z,1.70
2023-08-31T12:04:26.792Z,1.98
2023-08-31T12:07:28.764Z,1.67
2023-08-31T12:10:30.563Z,1.80
2023-08-31T12:13:32.513Z,1.83
2023-08-31T12:16:37.576Z,1.50
2023-08-31T12:19:40.469Z,2.33
2023-08-31T12:22:42.083Z,2.15
2023-08-31T12:25:48.816Z,2.70
2023-08-31T12:28:50.574Z,1.92
2023-08-31T12:31:52.276Z,1.90
2023-08-31T12:34:53.905Z,1.98
2023-08-31T12:37:55.718Z,2.20
2023-08-31T12:40:57.481Z,2.17
2023-08-31T12:43:59.228Z,1.92
2023-08-31T12:47:00.860Z,2.33
2023-08-31T12:50:04.241Z,2.03
2023-08-31T12:53:05.822Z,2.38
2023-08-31T12:56:07.497Z,1.75
2023-08-31T12:59:09.103Z,1.73
2023-08-31T13:02:13.481Z,1.85
2023-08-31T13:05:15.194Z,2.10
2023-08-31T13:08:16.816Z,1.80
2023-08-31T13:11:24.287Z,2.05
2023-08-31T13:14:25.928Z,1.92
2023-08-31T13:17:28.691Z,2.38
2023-08-31T13:20:31.797Z,2.33
2023-08-31T13:23:33.467Z,2.10
2023-08-31T13:26:35.134Z,2.65
2023-08-31T13:29:36.946Z,1.90
2023-08-31T13:32:38.655Z,1.75
2023-08-31T13:35:40.290Z,2.03
2023-08-31T13:38:41.963Z,2.25
2023-08-31T13:41:43.580Z,2.08
2023-08-31T13:44:45.158Z,1.90
2023-08-31T13:47:50.229Z,2.60
2023-08-31T13:50:51.864Z,1.77
2023-08-31T13:53:53.488Z,2.15
2023-08-31T13:56:55.137Z,2.00
2023-08-31T13:59:56.754Z,1.65
2023-08-31T14:02:59.825Z,1.77
2023-08-31T14:06:01.660Z,1.98
2023-08-31T14:09:03.726Z,1.65
2023-08-31T14:12:05.797Z,1.80
2023-08-31T14:15:08.062Z,2.15
2023-08-31T14:18:09.710Z,1.65
2023-08-31T14:21:16.577Z,1.08
2023-08-31T14:24:18.539Z,1.45
2023-08-31T14:27:20.125Z,1.65
2023-08-31T14:30:21.710Z,1.80
2023-08-31T14:33:23.326Z,1.55
2023-08-31T14:36:27.135Z,1.60
2023-08-31T14:39:31.501Z,1.98
2023-08-31T14:42:33.192Z,1.30
2023-08-31T14:45:34.792Z,1.55
2023-08-31T14:48:36.514Z,1.70
2023-08-31T14:51:38.247Z,1.70
2023-08-31T14:54:39.919Z,1.60
2023-08-31T14:57:43.480Z,1.83
2023-08-31T15:00:45.318Z,1.33
2023-08-31T15:03:47.092Z,1.60
2023-08-31T15:06:48.889Z,1.60
2023-08-31T15:09:51.316Z,1.25
2023-08-31T15:12:56.573Z,1.10
2023-08-31T15:16:00.158Z,1.75
2023-08-31T15:19:02.059Z,1.70
2023-08-31T15:22:05.189Z,1.20
2023-08-31T15:25:07.533Z,1.67
2023-08-31T15:28:10.159Z,1.95
2023-08-31T15:31:15.299Z,1.27
2023-08-31T15:34:17.152Z,1.38
2023-08-31T15:37:19.140Z,1.73
2023-08-31T15:40:20.900Z,1.67
2023-08-31T15:43:22.839Z,1.90
2023-08-31T15:46:24.528Z,2.20
2023-08-31T15:49:26.583Z,1.40
2023-08-31T15:52:28.150Z,1.42
2023-08-31T15:55:29.773Z,1.60
2023-08-31T15:58:31.459Z,1.55
2023-08-31T16:01:33.180Z,1.38
2023-08-31T16:04:35.651Z,1.60
2023-08-31T16:07:38.948Z,1.45
2023-08-31T16:10:40.590Z,0.80
2023-08-31T16:13:43.175Z,1.23
2023-08-31T16:16:45.039Z,1.25
2023-08-31T16:19:46.697Z,1.25
2023-08-31T16:22:48.333Z,1.02
2023-08-31T16:25:50.919Z,1.20
2023-08-31T16:28:52.521Z,1.80
2023-08-31T16:31:54.176Z,1.10
2023-08-31T16:34:55.982Z,1.23
2023-08-31T16:37:57.620Z,0.82
2023-08-31T16:40:59.299Z,1.25
2023-08-31T16:44:00.978Z,1.65
2023-08-31T16:47:02.810Z,1.50
2023-08-31T16:50:05.036Z,0.93
2023-08-31T16:53:07.107Z,1.27
2023-08-31T16:56:08.995Z,1.05
2023-08-31T16:59:10.645Z,1.05
2023-08-31T17:02:13.083Z,1.27
2023-08-31T17:05:15.627Z,0.95
2023-08-31T17:08:17.350Z,1.35
2023-08-31T17:11:19.057Z,0.73
2023-08-31T17:14:20.914Z,1.17
2023-08-31T17:17:26.532Z,1.33
2023-08-31T17:20:31.239Z,1.20
2023-08-31T17:23:33.236Z,1.30
2023-08-31T17:26:34.891Z,1.20
2023-08-31T17:29:36.577Z,1.15
2023-08-31T17:32:38.531Z,1.25
2023-08-31T17:35:40.182Z,1.20
2023-08-31T17:38:43.286Z,1.25
2023-08-31T17:41:46.091Z,1.58
2023-08-31T17:44:48.831Z,1.23
2023-08-31T17:47:50.537Z,1.10
2023-08-31T17:50:52.151Z,1.30
2023-08-31T17:53:56.163Z,1.08
2023-08-31T17:56:57.812Z,1.42
2023-08-31T17:59:59.839Z,1.35
2023-08-31T18:03:01.578Z,1.10
2023-08-31T18:06:04.145Z,1.40
2023-08-31T18:09:06.475Z,1.45
2023-08-31T18:12:09.480Z,2.10
2023-08-31T18:15:11.235Z,1.33
2023-08-31T18:18:12.869Z,1.48
2023-08-31T18:21:14.551Z,1.40
2023-08-31T18:24:16.153Z,1.38
2023-08-31T18:27:17.783Z,1.63
2023-08-31T18:30:19.428Z,1.48
2023-08-31T18:33:21.391Z,1.58
2023-08-31T18:36:23.097Z,2.00
2023-08-31T18:39:26.220Z,1.58
2023-08-31T18:42:28.747Z,1.25
2023-08-31T18:45:30.368Z,1.60
2023-08-31T18:48:32.042Z,1.70
2023-08-31T18:51:38.252Z,1.35
2023-08-31T18:54:40.019Z,2.13
2023-08-31T18:57:41.737Z,1.33
2023-08-31T19:00:43.460Z,1.42
2023-08-31T19:03:45.196Z,1.52
2023-08-31T19:06:46.890Z,1.58
2023-08-31T19:10:02.325Z,1.25
2023-08-31T19:13:08.847Z,1.30
2023-08-31T19:16:11.349Z,1.27
2023-08-31T19:19:13.004Z,0.95
2023-08-31T19:22:14.639Z,1.42
2023-08-31T19:25:20.136Z,1.27
2023-08-31T19:28:21.913Z,1.10
2023-08-31T19:31:23.583Z,1.00
2023-08-31T19:34:26.650Z,0.90
2023-08-31T19:37:33.552Z,1.30
2023-08-31T19:40:35.352Z,1.45
2023-08-31T19:43:36.969Z,0.98
2023-08-31T19:46:38.897Z,1.58
2023-08-31T19:49:40.493Z,1.08
2023-08-31T19:52:42.142Z,1.25
2023-08-31T19:55:43.772Z,1.00
2023-08-31T19:58:45.405Z,0.93
2023-08-31T20:01:47.075Z,0.70
2023-08-31T20:04:48.896Z,1.30
2023-08-31T20:07:51.685Z,0.90
2023-08-31T20:10:53.339Z,0.85
2023-08-31T20:13:57.230Z,1.13
2023-08-31T20:16:58.851Z,1.10
2023-08-31T20:20:00.502Z,1.08
2023-08-31T20:23:04.600Z,1.17
2023-08-31T20:26:06.261Z,1.17
2023-08-31T20:29:07.985Z,1.00
2023-08-31T20:32:09.932Z,0.88
2023-08-31T20:35:13.503Z,0.80
2023-08-31T20:38:15.647Z,1.23
2023-08-31T20:41:18.058Z,0.70
2023-08-31T20:44:19.665Z,1.83
2023-08-31T20:47:21.437Z,1.25
2023-08-31T20:50:23.470Z,0.95
2023-08-31T20:53:25.105Z,0.95
2023-08-31T20:56:27.519Z,1.23
2023-08-31T20:59:30.505Z,1.35
2023-08-31T21:02:32.590Z,1.48
2023-08-31T21:05:34.237Z,1.58
2023-08-31T21:08:36.516Z,1.20
2023-08-31T21:11:38.168Z,1.20
2023-08-31T21:14:39.805Z,1.17
2023-08-31T21:17:41.519Z,1.17
2023-08-31T21:20:44.144Z,1.25
2023-08-31T21:23:45.767Z,1.02
2023-08-31T21:26:47.425Z,0.80
2023-08-31T21:29:49.045Z,1.38
2023-08-31T21:32:50.711Z,1.00
2023-08-31T21:35:52.451Z,0.90
2023-08-31T21:38:54.110Z,1.45
2023-08-31T21:41:55.822Z,1.38
2023-08-31T21:45:00.013Z,1.02
2023-08-31T21:48:02.030Z,1.30
2023-08-31T21:51:03.859Z,1.30
2023-08-31T21:54:05.622Z,1.20
2023-08-31T21:57:07.289Z,1.73
2023-08-31T22:00:13.983Z,1.40
2023-08-31T22:03:15.846Z,1.30
2023-08-31T22:06:17.891Z,0.90
2023-08-31T22:09:21.433Z,1.33
2023-08-31T22:12:23.237Z,1.10
2023-08-31T22:15:27.912Z,1.02
2023-08-31T22:18:29.807Z,1.00
2023-08-31T22:21:31.549Z,1.08
2023-08-31T22:24:33.246Z,0.98
2023-08-31T22:27:35.563Z,1.88
2023-08-31T22:30:38.692Z,1.25
2023-08-31T22:33:40.403Z,1.20
2023-08-31T22:36:42.055Z,1.48
2023-08-31T22:39:43.681Z,1.13
2023-08-31T22:42:45.485Z,1.90
2023-08-31T22:45:58.375Z,1.33
2023-08-31T22:49:00.107Z,1.20
2023-08-31T22:52:01.796Z,1.13
2023-08-31T22:55:05.098Z,1.30
2023-08-31T22:58:06.781Z,1.48
2023-08-31T23:01:08.643Z,1.35
2023-08-31T23:04:10.279Z,1.33
2023-08-31T23:07:13.126Z,1.08
2023-08-31T23:10:26.715Z,1.10
2023-08-31T23:13:32.906Z,1.30
2023-08-31T23:16:34.684Z,1.40
2023-08-31T23:19:36.285Z,1.42
2023-08-31T23:22:37.882Z,1.42
2023-08-31T23:25:39.815Z,1.23
2023-08-31T23:28:45.784Z,1.63
2023-08-31T23:31:47.394Z,1.50
2023-08-31T23:34:48.965Z,1.48
2023-08-31T23:37:50.588Z,1.20
2023-08-31T23:40:57.384Z,1.55
2023-08-31T23:43:58.978Z,1.45
2023-08-31T23:47:00.735Z,1.30
2023-08-31T23:50:02.390Z,1.90
2023-08-31T23:53:04.188Z,1.25
2023-08-31T23:56:06.359Z,1.48
2023-08-31T23:59:08.858Z,1.65
